Time;durP1;ratioP1;P1;durP2;ratioP2;P2;SDS_P1;SDS_P2;PMS_P1;PMS_P2;Temp;Humidity;BMP_temperature;BMP_pressure;BME280_temperature;BME280_humidity;BME280_pressure;Samples;Min_cycle;Max_cycle;Signal;HPM_P1;HPM_P2
2022/03/17 00:00:25;;;;;;;32.75;19.75;;;;;;;9.58;71.95;100379.13;12207393;19;20010;-80
2022/03/17 00:04:27;;;;;;;31.85;20.85;;;;;;;9.55;71.91;100372.19;12202417;19;20923;-80
2022/03/17 00:08:28;;;;;;;32.92;20.30;;;;;;;9.52;71.98;100380.06;12188755;19;20006;-80
2022/03/17 00:12:30;;;;;;;33.53;20.33;;;;;;;9.49;71.91;100367.59;12206138;19;20007;-80
2022/03/17 00:16:32;;;;;;;25.38;15.23;;;;;;;9.48;71.63;100371.41;12201189;19;20011;-80
2022/03/17 00:20:35;;;;;;;32.37;20.50;;;;;;;9.51;71.60;100370.09;12183899;19;20003;-79
2022/03/17 00:24:36;;;;;;;30.52;19.85;;;;;;;9.53;71.39;100374.31;12210624;19;20090;-79
2022/03/17 00:28:39;;;;;;;32.28;21.15;;;;;;;9.51;71.40;100370.09;12209926;19;20018;-78
2022/03/17 00:32:40;;;;;;;33.77;20.53;;;;;;;9.49;71.15;100367.59;12185191;19;20085;-79
2022/03/17 00:36:42;;;;;;;34.22;21.40;;;;;;;9.50;71.37;100369.28;12206052;19;20534;-79
2022/03/17 00:40:46;;;;;;;38.80;22.40;;;;;;;9.53;71.51;100373.47;12208230;19;20014;-79
2022/03/17 00:44:48;;;;;;;34.60;22.15;;;;;;;9.55;70.91;100382.34;12166058;19;20019;-80
2022/03/17 00:48:50;;;;;;;32.27;19.63;;;;;;;9.56;71.24;100384.84;12200816;19;22039;-79
2022/03/17 00:52:53;;;;;;;32.45;21.33;;;;;;;9.52;71.22;100393.81;12186330;19;20018;-79
2022/03/17 00:56:54;;;;;;;24.50;15.90;;;;;;;9.55;71.02;100388.69;12209196;19;20031;-78
2022/03/17 01:00:56;;;;;;;32.75;21.88;;;;;;;9.54;71.42;100380.66;12196241;19;20074;-79
2022/03/17 01:04:58;;;;;;;33.92;21.52;;;;;;;9.52;71.67;100391.91;12182216;19;20010;-79
2022/03/17 01:08:59;;;;;;;34.03;22.17;;;;;;;9.56;71.15;100382.09;12202093;19;20038;-79
2022/03/17 01:13:04;;;;;;;37.40;21.85;;;;;;;9.59;71.17;100381.66;12210860;19;20011;-79
2022/03/17 01:17:05;;;;;;;33.42;21.15;;;;;;;9.63;70.89;100361.91;12175804;19;20003;-79
2022/03/17 01:21:08;;;;;;;35.00;21.25;;;;;;;9.61;71.04;100356.66;12198512;19;20492;-80
2022/03/17 01:25:10;;;;;;;35.60;21.98;;;;;;;9.62;71.13;100357.50;12208625;19;20007;-79
2022/03/17 01:29:12;;;;;;;36.47;21.60;;;;;;;9.62;71.09;100358.34;12180766;19;20050;-80
2022/03/17 01:33:16;;;;;;;33.97;21.77;;;;;;;9.64;70.84;100349.84;12207152;19;20010;-79
2022/03/17 01:37:19;;;;;;;36.47;23.27;;;;;;;9.66;70.34;100354.03;12197615;19;20021;-79
2022/03/17 01:41:21;;;;;;;37.20;23.30;;;;;;;9.67;70.04;100357.66;12187218;19;20018;-79
2022/03/17 01:45:25;;;;;;;36.55;23.13;;;;;;;9.74;69.81;100358.41;12199666;19;20017;-79
2022/03/17 01:49:27;;;;;;;35.38;22.73;;;;;;;9.71;69.75;100359.69;12200009;19;20027;-80
2022/03/17 01:53:28;;;;;;;35.53;22.60;;;;;;;9.70;70.06;100357.19;12173786;19;20035;-80
2022/03/17 01:57:32;;;;;;;37.67;23.13;;;;;;;9.64;70.06;100349.84;12203065;19;20086;-79
2022/03/17 02:01:34;;;;;;;37.63;22.42;;;;;;;9.63;70.27;100350.91;12204492;19;20006;-80
2022/03/17 02:05:36;;;;;;;31.92;21.92;;;;;;;9.59;70.01;100356.88;12179537;19;20007;-79
2022/03/17 02:09:38;;;;;;;35.38;21.58;;;;;;;9.56;70.46;100354.59;12209927;19;20011;-79
2022/03/17 02:13:41;;;;;;;36.63;22.23;;;;;;;9.51;70.42;100362.69;12208290;19;20074;-79
2022/03/17 02:17:43;;;;;;;37.50;23.08;;;;;;;9.50;70.70;100361.00;12178905;19;20480;-79
2022/03/17 02:21:45;;;;;;;40.08;24.25;;;;;;;9.47;70.54;100358.72;12201586;19;20716;-79
2022/03/17 02:25:50;;;;;;;37.97;22.52;;;;;;;9.43;70.40;100363.00;12194636;19;20015;-80
2022/03/17 02:29:52;;;;;;;33.58;20.63;;;;;;;9.41;70.86;100378.06;12171851;19;20021;-79
2022/03/17 02:33:53;;;;;;;37.60;21.73;;;;;;;9.37;71.05;100380.44;12196305;19;20015;-79
2022/03/17 02:37:56;;;;;;;35.45;21.75;;;;;;;9.33;71.60;100376.44;12175327;19;20010;-78
2022/03/17 02:42:00;;;;;;;36.88;21.05;;;;;;;9.26;71.62;100379.25;12196882;19;20308;-79
2022/03/17 02:46:01;;;;;;;36.08;21.67;;;;;;;9.20;71.93;100385.66;12203713;19;20011;-78
2022/03/17 02:50:05;;;;;;;37.53;22.20;;;;;;;9.13;72.41;100385.75;12194972;19;20018;-78
2022/03/17 02:54:06;;;;;;;37.60;23.05;;;;;;;9.07;72.43;100389.41;12202543;19;20014;-78
2022/03/17 02:58:09;;;;;;;40.93;23.43;;;;;;;8.98;72.97;100385.22;12205277;19;20074;-80
2022/03/17 03:02:11;;;;;;;38.07;22.57;;;;;;;8.90;73.12;100383.63;12201749;19;20264;-80
2022/03/17 03:06:14;;;;;;;36.72;22.13;;;;;;;8.81;73.87;100376.72;12209320;19;20014;-78
2022/03/17 03:10:15;;;;;;;34.72;22.17;;;;;;;8.72;73.70;100394.56;12206019;19;20074;-79
2022/03/17 03:14:18;;;;;;;33.65;20.83;;;;;;;8.65;73.93;100389.09;12189406;19;20500;-79
2022/03/17 03:18:20;;;;;;;41.58;23.17;;;;;;;8.62;74.35;100388.72;12206849;19;20042;-78
2022/03/17 03:22:22;;;;;;;38.77;22.83;;;;;;;8.56;74.59;100386.84;12216595;19;20022;-79
2022/03/17 03:26:26;;;;;;;39.03;23.63;;;;;;;8.47;74.90;100372.53;12179039;19;20077;-78
2022/03/17 03:30:28;;;;;;;36.53;22.85;;;;;;;8.40;74.96;100369.03;12203797;19;20010;-79
2022/03/17 03:34:31;;;;;;;35.28;22.13;;;;;;;8.36;74.91;100378.75;12203483;19;20015;-78
2022/03/17 03:38:32;;;;;;;36.65;21.35;;;;;;;8.38;75.01;100377.47;12182337;19;20062;-78
2022/03/17 03:42:34;;;;;;;38.28;22.23;;;;;;;8.33;75.45;100368.16;12207259;19;20075;-79
2022/03/17 03:46:36;;;;;;;37.33;21.93;;;;;;;8.34;75.34;100378.94;12199195;19;20504;-79
2022/03/17 03:50:38;;;;;;;38.17;22.00;;;;;;;8.37;74.96;100374.94;12180645;19;20022;-78
2022/03/17 03:54:40;;;;;;;37.08;21.63;;;;;;;8.45;74.33;100385.69;12207097;19;20385;-78
2022/03/17 03:58:42;;;;;;;34.55;20.20;;;;;;;8.50;74.27;100388.59;12201506;19;20006;-78
2022/03/17 04:02:44;;;;;;;35.65;19.60;;;;;;;8.52;74.34;100396.63;12185522;19;20011;-78
2022/03/17 04:06:58;;;;;;;36.45;20.80;;;;;;;8.57;73.81;100416.03;12200616;19;20030;-78
2022/03/17 04:11:00;;;;;;;35.45;20.60;;;;;;;8.62;73.70;100413.44;12182085;19;20520;-78
2022/03/17 04:15:02;;;;;;;33.15;20.65;;;;;;;8.63;74.07;100399.50;12199839;19;20019;-78
2022/03/17 04:19:04;;;;;;;24.08;15.05;;;;;;;8.64;74.11;100416.81;12197737;19;20024;-78
2022/03/17 04:23:06;;;;;;;23.40;14.40;;;;;;;8.71;73.18;100441.47;12196733;19;20082;-78
2022/03/17 04:27:09;;;;;;;33.45;19.25;;;;;;;8.76;72.64;100456.25;12208972;19;20401;-78
2022/03/17 04:31:11;;;;;;;36.28;20.95;;;;;;;8.81;72.84;100450.09;12203390;19;20030;-79
2022/03/17 04:35:13;;;;;;;35.38;20.70;;;;;;;8.79;73.30;100455.78;12176325;19;20006;-78
2022/03/17 04:39:17;;;;;;;32.45;20.83;;;;;;;8.76;73.96;100455.41;12197456;19;20006;-79
2022/03/17 04:43:20;;;;;;;34.20;20.35;;;;;;;8.72;74.05;100470.66;12208527;19;20035;-79
2022/03/17 04:47:22;;;;;;;35.70;21.17;;;;;;;8.66;74.24;100464.97;12173803;19;20011;-78
2022/03/17 04:51:24;;;;;;;33.58;20.55;;;;;;;8.63;74.39;100464.59;12200928;19;20020;-79
2022/03/17 04:55:26;;;;;;;34.35;20.65;;;;;;;8.60;74.59;100462.28;12200256;19;20010;-79
2022/03/17 04:59:28;;;;;;;34.88;20.60;;;;;;;8.59;74.81;100469.66;12177771;19;20086;-79
2022/03/17 05:03:31;;;;;;;35.47;20.60;;;;;;;8.59;74.33;100471.56;12196579;19;20094;-78
2022/03/17 05:07:38;;;;;;;33.97;20.55;;;;;;;8.57;74.31;100465.47;12202126;19;20019;-79
2022/03/17 05:11:41;;;;;;;34.60;21.73;;;;;;;8.56;74.24;100467.34;12180282;19;20007;-79
2022/03/17 05:15:42;;;;;;;32.83;20.20;;;;;;;8.57;74.00;100487.44;12204868;19;20094;-80
2022/03/17 05:19:45;;;;;;;34.03;21.25;;;;;;;8.57;74.13;100491.03;12209191;19;20007;-80
2022/03/17 05:23:48;;;;;;;36.63;21.35;;;;;;;8.58;74.07;100500.13;12183854;19;20026;-78
2022/03/17 05:27:50;;;;;;;35.13;21.52;;;;;;;8.59;74.11;100496.28;12195045;19;20014;-79
2022/03/17 05:31:51;;;;;;;36.53;22.48;;;;;;;8.57;74.42;100509.44;12188812;19;20011;-82
2022/03/17 05:35:53;;;;;;;32.40;20.13;;;;;;;8.56;74.31;100508.56;12205958;19;20011;-79
2022/03/17 05:39:55;;;;;;;38.07;20.70;;;;;;;8.57;74.46;100524.00;12221622;19;20007;-79
2022/03/17 05:43:57;;;;;;;34.55;19.65;;;;;;;8.60;74.46;100528.22;12174722;19;20075;-78
2022/03/17 05:48:00;;;;;;;38.53;21.58;;;;;;;8.59;74.53;100538.34;12202435;19;20007;-79
2022/03/17 05:52:03;;;;;;;35.47;20.88;;;;;;;8.62;74.57;100534.31;12200497;19;20014;-78
2022/03/17 05:56:06;;;;;;;33.63;20.20;;;;;;;8.62;74.47;100526.06;12175474;19;20138;-78
2022/03/17 06:00:11;;;;;;;34.67;21.48;;;;;;;8.61;74.68;100513.41;12208456;19;20070;-79
2022/03/17 06:04:13;;;;;;;33.53;20.30;;;;;;;8.59;74.34;100515.53;12195248;19;20139;-79
2022/03/17 06:08:18;;;;;;;33.67;19.35;;;;;;;8.61;73.73;100530.72;12177019;19;20026;-79
2022/03/17 06:12:30;;;;;;;34.25;21.20;;;;;;;8.69;73.21;100539.78;12196706;19;20010;-82
2022/03/17 06:16:33;;;;;;;31.88;19.65;;;;;;;8.74;73.20;100543.53;12200872;19;20027;-80
2022/03/17 06:20:38;;;;;;;31.15;19.50;;;;;;;8.79;73.14;100551.13;12179529;19;20010;-79
2022/03/17 06:24:40;;;;;;;34.33;19.52;;;;;;;8.86;72.64;100555.56;12210320;19;20007;-79
2022/03/17 06:28:42;;;;;;;34.58;20.10;;;;;;;8.94;72.48;100568.16;12213119;19;20472;-80
2022/03/17 06:32:46;;;;;;;33.72;20.38;;;;;;;9.01;72.65;100569.00;12176723;19;20011;-80
2022/03/17 06:36:47;;;;;;;32.67;20.65;;;;;;;9.12;72.65;100578.41;12180902;19;20489;-81
2022/03/17 06:40:49;;;;;;;32.63;19.77;;;;;;;9.21;72.86;100590.00;12210366;19;20002;-81
2022/03/17 06:44:51;;;;;;;32.58;20.05;;;;;;;9.29;72.65;100598.00;12203414;19;20113;-81
2022/03/17 06:48:55;;;;;;;31.42;19.33;;;;;;;9.37;72.30;100605.97;12199461;19;20108;-80
2022/03/17 06:52:57;;;;;;;32.85;19.95;;;;;;;9.47;72.21;100606.31;12187293;19;20011;-81
2022/03/17 06:56:59;;;;;;;32.88;20.25;;;;;;;9.56;72.21;100613.22;12210858;19;20015;-80
2022/03/17 07:01:01;;;;;;;29.52;18.55;;;;;;;9.65;71.69;100601.94;12200658;19;20027;-80
2022/03/17 07:05:04;;;;;;;29.75;18.33;;;;;;;9.75;71.50;100616.88;12178261;19;20479;-79
2022/03/17 07:09:10;;;;;;;31.15;18.67;;;;;;;9.86;71.54;100618.06;12196063;19;20011;-80
2022/03/17 07:13:13;;;;;;;32.67;20.20;;;;;;;10.00;71.59;100616.03;12201182;19;20035;-80
2022/03/17 07:17:20;;;;;;;30.52;19.77;;;;;;;10.11;71.53;100622.69;12183503;19;20007;-80
2022/03/17 07:21:22;;;;;;;31.23;19.58;;;;;;;10.17;71.30;100625.41;12210347;19;20011;-80
2022/03/17 07:25:33;;;;;;;33.58;19.92;;;;;;;10.25;70.31;100643.53;12199181;19;20017;-80
2022/03/17 07:29:36;;;;;;;31.58;18.98;;;;;;;10.36;70.26;100636.47;12180013;19;20007;-82
2022/03/17 07:33:38;;;;;;;33.20;19.30;;;;;;;10.41;69.61;100651.25;12213272;19;20010;-80
2022/03/17 07:37:41;;;;;;;31.17;19.60;;;;;;;10.50;69.69;100654.53;12206179;19;20019;-80
2022/03/17 07:41:43;;;;;;;29.55;19.05;;;;;;;10.58;69.64;100661.66;12192614;19;20022;-80
2022/03/17 07:45:50;;;;;;;32.10;20.48;;;;;;;10.62;69.70;100660.09;12202552;19;20006;-80
2022/03/17 07:50:11;;;;;;;31.60;19.95;;;;;;;10.67;69.62;100671.28;12186591;19;20045;-80
2022/03/17 07:54:13;;;;;;;28.23;19.47;;;;;;;10.73;69.46;100664.88;12200260;19;20021;-80
2022/03/17 07:58:19;;;;;;;31.48;19.70;;;;;;;10.79;69.15;100672.22;12208594;19;20603;-80
2022/03/17 08:02:21;;;;;;;34.38;19.55;;;;;;;10.83;68.52;100678.97;12191891;19;20054;-80
2022/03/17 08:06:25;;;;;;;33.30;18.98;;;;;;;10.91;68.44;100681.38;12205471;19;20027;-80
2022/03/17 08:10:31;;;;;;;29.50;19.00;;;;;;;11.02;68.50;100690.81;12215324;19;20011;-80
2022/03/17 08:14:35;;;;;;;29.02;18.52;;;;;;;11.07;66.85;100684.63;12189746;19;20014;-80
2022/03/17 08:18:42;;;;;;;32.80;19.45;;;;;;;11.15;66.91;100681.53;12205564;19;20065;-80
2022/03/17 08:22:44;;;;;;;31.40;20.23;;;;;;;11.24;66.23;100682.03;12210094;19;20010;-80
2022/03/17 08:26:49;;;;;;;29.23;19.58;;;;;;;11.37;65.24;100692.91;12189474;19;20038;-80
2022/03/17 08:30:51;;;;;;;31.83;20.00;;;;;;;11.39;64.17;100699.03;12225166;19;20022;-80
2022/03/17 08:34:53;;;;;;;32.73;20.13;;;;;;;11.56;64.05;100713.00;12187098;19;20014;-80
2022/03/17 08:38:56;;;;;;;30.67;20.27;;;;;;;11.69;63.62;100712.84;12205602;19;20078;-81
2022/03/17 08:42:58;;;;;;;30.88;20.75;;;;;;;11.90;63.98;100711.47;12204341;19;20026;-81
2022/03/17 08:51:24;;;;;;;30.45;20.45;;;;;;;12.21;62.08;100728.81;12200464;19;20275;-80
2022/03/17 08:55:26;;;;;;;29.97;19.67;;;;;;;12.28;61.51;100733.19;12207762;19;20073;-80
2022/03/17 08:59:30;;;;;;;37.30;21.27;;;;;;;12.37;60.21;100732.78;12182436;19;20023;-80
2022/03/17 09:03:33;;;;;;;33.92;21.23;;;;;;;12.49;59.87;100733.63;12204542;19;20024;-80
2022/03/17 09:07:44;;;;;;;30.95;20.85;;;;;;;12.55;58.15;100740.97;12202138;19;20097;-80
2022/03/17 09:11:57;;;;;;;30.27;19.77;;;;;;;12.58;58.39;100751.56;12185314;19;20015;-80
2022/03/17 09:15:59;;;;;;;29.43;19.57;;;;;;;12.54;57.92;100755.88;12201895;19;20014;-80
2022/03/17 09:20:02;;;;;;;33.50;20.42;;;;;;;12.64;58.51;100761.69;12181970;19;20264;-80
2022/03/17 09:24:05;;;;;;;29.13;19.77;;;;;;;12.73;58.12;100759.38;12211708;19;20014;-81
2022/03/17 09:28:07;;;;;;;30.45;20.70;;;;;;;12.83;57.56;100767.06;12212114;19;20033;-81
2022/03/17 09:32:09;;;;;;;33.20;20.35;;;;;;;12.89;56.31;100778.00;12192397;19;20019;-81
2022/03/17 09:36:11;;;;;;;29.60;19.30;;;;;;;13.04;56.46;100780.28;12205582;19;20010;-81
2022/03/17 09:40:14;;;;;;;33.25;20.52;;;;;;;13.26;56.33;100779.66;12212603;19;20031;-80
2022/03/17 09:44:16;;;;;;;29.38;20.08;;;;;;;13.26;56.32;100782.44;12185420;19;20464;-80
2022/03/17 09:48:21;;;;;;;33.45;21.38;;;;;;;13.35;55.18;100775.44;12200929;19;20372;-80
2022/03/17 09:52:23;;;;;;;35.72;20.25;;;;;;;13.40;55.00;100784.69;12202763;19;20010;-81
2022/03/17 09:56:33;;;;;;;30.75;20.55;;;;;;;13.31;54.78;100796.41;12177376;19;20015;-80
2022/03/17 10:00:52;;;;;;;27.38;18.92;;;;;;;13.32;54.87;100793.38;12197574;19;20472;-80
2022/03/17 10:04:55;;;;;;;29.33;18.48;;;;;;;13.39;54.60;100801.56;12179266;19;20018;-80
2022/03/17 10:08:59;;;;;;;29.67;18.85;;;;;;;13.40;53.95;100803.22;12199919;19;20094;-81
2022/03/17 10:13:11;;;;;;;27.13;18.33;;;;;;;13.52;54.08;100808.75;12199828;19;20098;-81
2022/03/17 10:17:32;;;;;;;27.77;19.05;;;;;;;13.56;53.95;100821.84;12173635;19;20010;-80
2022/03/17 10:21:37;;;;;;;29.25;19.45;;;;;;;13.59;53.66;100831.59;12205698;19;20041;-81
2022/03/17 10:25:40;;;;;;;28.67;19.33;;;;;;;13.34;53.56;100835.50;12206481;19;20043;-80
2022/03/17 10:30:21;;;;;;;32.35;21.08;;;;;;;12.86;55.01;100844.88;12183275;19;20019;-80
2022/03/17 10:34:31;;;;;;;36.92;22.70;;;;;;;12.59;56.23;100851.94;12211763;19;20070;-80
2022/03/17 10:39:11;;;;;;;37.97;22.45;;;;;;;12.29;56.91;100858.38;12215771;19;20038;-80
2022/03/17 10:43:34;;;;;;;36.40;21.90;;;;;;;12.05;58.04;100860.22;12200794;19;20029;-80
2022/03/17 10:47:38;;;;;;;37.13;22.75;;;;;;;11.88;59.23;100872.97;12179562;19;20011;-80
2022/03/17 10:51:43;;;;;;;39.53;23.30;;;;;;;11.76;59.55;100884.75;12198565;19;20409;-80
2022/03/17 10:55:45;;;;;;;41.97;25.00;;;;;;;11.60;60.36;100882.63;12196135;19;20020;-80
2022/03/17 10:59:47;;;;;;;38.70;23.25;;;;;;;11.50;60.62;100896.13;12180874;19;20034;-81
2022/03/17 11:03:49;;;;;;;40.17;23.05;;;;;;;11.44;61.02;100897.03;12194343;19;20006;-80
2022/03/17 11:07:54;;;;;;;40.30;24.58;;;;;;;11.44;60.97;100899.81;12194386;19;20011;-79
2022/03/17 11:11:57;;;;;;;36.88;22.75;;;;;;;11.34;61.11;100903.94;12212651;19;20600;-80
2022/03/17 11:16:06;;;;;;;39.28;22.85;;;;;;;11.38;60.70;100909.84;12212303;19;20078;-80
2022/03/17 11:20:22;;;;;;;36.30;22.15;;;;;;;11.37;60.69;100905.41;12194718;19;20023;-79
2022/03/17 11:24:24;;;;;;;33.25;21.80;;;;;;;11.36;60.92;100914.72;12214894;19;20011;-80
2022/03/17 11:28:34;;;;;;;38.83;23.05;;;;;;;11.52;60.90;100910.53;12212260;19;20007;-80
2022/03/17 11:32:49;;;;;;;37.72;23.30;;;;;;;11.62;59.93;100919.13;12200342;19;20002;-80
2022/03/17 11:37:22;;;;;;;36.90;22.42;;;;;;;11.60;60.55;100929.53;12205288;19;20013;-79
2022/03/17 11:41:27;;;;;;;43.00;23.50;;;;;;;11.54;61.01;100925.81;12189829;19;20014;-80
2022/03/17 11:45:29;;;;;;;40.20;23.80;;;;;;;11.60;61.20;100929.53;12214141;19;20022;-81
2022/03/17 11:49:54;;;;;;;;;;;;;;;;;;;;;
2022/03/17 11:53:59;;;;;;;45.30;23.70;;;;;;;11.48;62.31;100937.78;12184260;19;20007;-80
2022/03/17 11:58:41;;;;;;;42.13;25.77;;;;;;;11.41;62.84;100948.84;12234341;19;20007;-80
2022/03/17 12:02:43;;;;;;;46.75;24.17;;;;;;;11.39;62.96;100956.53;12191221;19;20018;-80
2022/03/17 12:07:06;;;;;;;44.20;24.45;;;;;;;11.28;63.86;100951.75;12209832;19;20022;-81
2022/03/17 12:11:13;;;;;;;37.28;23.88;;;;;;;11.22;63.22;100958.19;12187595;19;20002;-80
2022/03/17 12:15:43;;;;;;;35.28;22.40;;;;;;;11.17;63.19;100958.00;12215464;19;20101;-80
2022/03/17 12:19:51;;;;;;;40.63;23.52;;;;;;;11.17;64.16;100971.81;12216267;19;20011;-81
2022/03/17 12:24:02;;;;;;;40.90;24.67;;;;;;;11.11;65.23;100976.31;12197730;19;20018;-80
2022/03/17 12:28:26;;;;;;;42.28;23.95;;;;;;;10.92;70.85;100975.41;12227671;19;20025;-81
2022/03/17 12:32:52;;;;;;;41.72;24.23;;;;;;;10.68;73.67;100977.06;12209369;19;20026;-81
2022/03/17 12:36:55;;;;;;;41.60;21.23;;;;;;;10.53;78.09;100979.28;12224393;19;20010;-79
2022/03/17 12:41:13;;;;;;;38.50;19.85;;;;;;;10.20;80.88;100999.56;12205306;19;20024;-80
2022/03/17 12:45:17;;;;;;;47.45;23.13;;;;;;;9.95;83.94;100993.06;12208409;19;20006;-79
2022/03/17 12:49:21;;;;;;;50.00;24.33;;;;;;;9.59;85.76;100995.28;12208818;19;20013;-80
2022/03/17 12:53:26;;;;;;;46.97;20.92;;;;;;;9.51;87.08;101005.66;12178880;19;20085;-80
2022/03/17 12:57:30;;;;;;;41.17;20.13;;;;;;;9.44;87.97;100997.41;12202186;19;20025;-82
2022/03/17 13:01:32;;;;;;;49.83;21.67;;;;;;;9.49;87.22;100997.63;12205355;19;20015;-82
2022/03/17 13:09:55;;;;;;;41.58;19.05;;;;;;;9.74;88.04;101007.94;12206843;19;20011;-81
2022/03/17 13:18:24;;;;;;;41.00;20.73;;;;;;;9.58;89.64;101009.25;12210620;19;20009;-81
2022/03/17 13:22:32;;;;;;;36.92;18.95;;;;;;;9.58;90.72;101010.09;12219355;19;20014;-82
2022/03/17 13:26:34;;;;;;;38.45;20.13;;;;;;;9.53;91.70;101007.13;12189713;19;20011;-81
2022/03/17 13:30:59;;;;;;;40.22;19.85;;;;;;;9.62;89.28;101012.41;12213627;19;20481;-82
2022/03/17 13:35:03;;;;;;;34.58;18.50;;;;;;;9.71;90.06;101014.72;12182499;19;20042;-82
2022/03/17 13:39:10;;;;;;;44.10;20.58;;;;;;;9.90;90.35;101012.97;12206415;19;20506;-80
2022/03/17 13:43:17;;;;;;;34.08;18.65;;;;;;;10.03;88.75;101014.88;12207542;19;20535;-81
2022/03/17 13:47:22;;;;;;;33.35;18.02;;;;;;;9.98;88.83;101014.66;12184975;19;20015;-80
2022/03/17 13:51:33;;;;;;;33.45;18.65;;;;;;;9.88;89.40;101026.13;12202551;19;20070;-81
2022/03/17 13:55:42;;;;;;;33.17;17.70;;;;;;;9.77;89.11;101041.38;12192941;19;20025;-80
2022/03/17 13:59:43;;;;;;;34.33;19.27;;;;;;;9.53;91.22;101034.66;12181398;19;20026;-79
2022/03/17 14:03:46;;;;;;;36.92;19.45;;;;;;;9.44;91.02;101035.94;12204822;19;20468;-79
2022/03/17 14:07:51;;;;;;;34.65;17.25;;;;;;;9.31;91.12;101055.16;12181468;19;20019;-81
2022/03/17 14:11:54;;;;;;;36.25;19.23;;;;;;;9.22;91.14;101054.56;12203334;19;20045;-79
2022/03/17 14:15:56;;;;;;;39.08;19.40;;;;;;;9.15;92.25;101059.19;12200882;19;20018;-79
2022/03/17 14:19:57;;;;;;;36.25;18.13;;;;;;;9.15;91.40;101058.34;12182311;19;20006;-80
2022/03/17 14:24:13;;;;;;;31.13;17.20;;;;;;;9.14;91.14;101060.25;12202715;19;20010;-77
2022/03/17 14:28:15;;;;;;;32.17;18.02;;;;;;;9.08;91.32;101064.69;12197589;19;20015;-81
2022/03/17 14:32:22;;;;;;;27.02;14.43;;;;;;;9.18;90.84;101066.19;12182263;19;20026;-83
2022/03/17 14:36:33;;;;;;;26.75;15.98;;;;;;;9.14;90.60;101085.00;12205537;19;20091;-81
2022/03/17 14:40:40;;;;;;;25.33;15.05;;;;;;;9.14;90.36;101076.75;12208567;19;20014;-79
2022/03/17 14:44:45;;;;;;;26.42;13.85;;;;;;;9.17;89.91;101083.75;12194892;19;20010;-82
2022/03/17 14:48:47;;;;;;;24.85;13.50;;;;;;;9.12;90.46;101082.44;12206739;19;20052;-80
2022/03/17 14:52:49;;;;;;;25.93;13.47;;;;;;;9.09;90.97;101082.03;12212586;19;20022;-79
2022/03/17 14:56:51;;;;;;;28.63;14.35;;;;;;;9.07;91.40;101087.75;12182630;19;20027;-80
2022/03/17 15:00:53;;;;;;;23.45;14.70;;;;;;;9.12;90.74;101085.19;12211966;19;20014;-80
2022/03/17 15:04:55;;;;;;;28.02;13.00;;;;;;;9.13;90.02;101103.41;12187932;19;20014;-81
2022/03/17 15:08:57;;;;;;;26.87;13.87;;;;;;;9.08;90.28;101105.09;12207760;19;20476;-80
2022/03/17 15:13:00;;;;;;;23.63;12.20;;;;;;;9.11;90.30;101111.03;12213528;19;20010;-81
2022/03/17 15:17:03;;;;;;;25.63;13.63;;;;;;;9.19;89.56;101111.88;12195879;19;20019;-78
2022/03/17 15:21:05;;;;;;;28.00;12.93;;;;;;;9.12;90.38;101122.84;12213739;19;20011;-79
2022/03/17 15:25:07;;;;;;;25.67;13.90;;;;;;;9.09;91.10;101132.38;12216554;19;20014;-81
2022/03/17 15:33:31;;;;;;;29.30;14.70;;;;;;;9.10;91.68;101136.84;12215602;19;20396;-80
2022/03/17 15:37:36;;;;;;;28.98;13.65;;;;;;;9.01;94.30;101139.97;12219001;19;20503;-81
2022/03/17 15:41:39;;;;;;;25.23;13.80;;;;;;;9.02;93.13;101145.25;12200977;19;20010;-80
2022/03/17 15:45:42;;;;;;;;;;;;;;;8.99;94.87;101153.94;12221063;19;20043;-81
2022/03/17 15:49:44;;;;;;;27.17;13.93;;;;;;;9.04;94.48;101154.16;12224703;19;19929;-80
2022/03/17 15:53:46;;;;;;;26.30;13.47;;;;;;;9.08;95.02;101160.94;12210470;19;20025;-78
2022/03/17 15:57:51;;;;;;;;;;;;;;;9.07;95.96;101170.25;12208291;19;20006;-80
2022/03/17 16:01:54;;;;;;;22.02;11.93;;;;;;;9.09;95.56;101170.88;12181571;19;21495;-80
2022/03/17 16:05:57;;;;;;;28.90;11.93;;;;;;;9.09;95.61;101179.13;12198546;19;20050;-79
2022/03/17 16:14:41;;;;;;;22.63;11.93;;;;;;;9.07;95.69;101197.75;12181970;19;20016;-79
2022/03/17 16:18:44;;;;;;;26.75;11.48;;;;;;;8.98;96.24;101201.69;12203624;19;20086;-78
2022/03/17 16:22:46;;;;;;;20.50;10.48;;;;;;;8.94;95.40;101205.09;12212877;19;20421;-78
2022/03/17 16:26:48;;;;;;;22.83;10.88;;;;;;;8.94;94.28;101208.66;12189025;19;20385;-78
2022/03/17 16:30:51;;;;;;;16.40;9.48;;;;;;;8.86;92.45;101214.34;12208345;19;20003;-81
2022/03/17 16:34:52;;;;;;;20.52;9.65;;;;;;;8.81;90.66;101211.38;12179995;19;20015;-78
2022/03/17 16:38:58;;;;;;;15.10;9.43;;;;;;;8.89;89.68;101214.81;12215913;19;20478;-79
2022/03/17 16:42:59;;;;;;;18.02;9.70;;;;;;;8.88;88.75;101220.50;12215542;19;20021;-79
2022/03/17 16:47:02;;;;;;;14.70;8.27;;;;;;;8.86;86.75;101225.34;12190081;19;20018;-81
2022/03/17 16:51:06;;;;;;;13.90;8.57;;;;;;;8.87;86.04;101233.38;12209439;19;20014;-80
2022/03/17 16:55:08;;;;;;;15.52;9.15;;;;;;;8.87;85.72;101238.03;12210334;19;20029;-79
2022/03/17 16:59:16;;;;;;;15.18;9.00;;;;;;;8.88;85.80;101247.97;12178850;19;20007;-80
2022/03/17 17:03:25;;;;;;;13.32;7.82;;;;;;;8.82;84.54;101257.03;12211219;19;20022;-79
2022/03/17 17:07:34;;;;;;;13.30;8.07;;;;;;;8.80;84.87;101259.13;12216167;19;20050;-81
2022/03/17 17:11:36;;;;;;;13.45;7.57;;;;;;;8.75;83.85;101269.91;12189933;19;20015;-80
2022/03/17 17:15:38;;;;;;;13.80;7.35;;;;;;;8.76;83.23;101269.69;12198327;19;20011;-80
2022/03/17 17:19:43;;;;;;;13.15;7.07;;;;;;;8.77;82.79;101265.03;12214563;19;20022;-80
2022/03/17 17:32:32;;;;;;;;;;;;;;;8.73;82.90;101294.00;12190626;19;20024;-80
2022/03/17 17:36:36;;;;;;;;;;;;;;;8.64;82.65;101305.13;12201537;19;19918;-78
2022/03/17 17:40:38;;;;;;;15.05;7.78;;;;;;;8.64;82.25;101309.78;12231256;19;19913;-80
2022/03/17 17:44:40;;;;;;;15.07;7.47;;;;;;;8.62;82.36;101318.22;12211648;19;20022;-80
2022/03/17 17:48:42;;;;;;;10.70;6.30;;;;;;;8.63;82.01;101330.91;12234785;19;20018;-79
2022/03/17 17:52:45;;;;;;;12.20;7.32;;;;;;;8.69;82.19;101334.78;12196853;19;20037;-81
2022/03/17 17:56:55;;;;;;;14.38;7.45;;;;;;;8.70;81.89;101327.38;12177680;19;20078;-83
2022/03/17 18:00:57;;;;;;;9.77;5.87;;;;;;;8.58;81.42;101338.06;12194571;19;20739;-78
2022/03/17 18:04:59;;;;;;;11.77;6.97;;;;;;;8.64;81.68;101331.75;12182876;19;20012;-79
2022/03/17 18:09:00;;;;;;;11.23;6.25;;;;;;;8.63;81.35;101346.56;12201765;19;20015;-80
2022/03/17 18:13:02;;;;;;;13.20;6.45;;;;;;;8.58;81.75;101354.53;12201338;19;20376;-78
2022/03/17 18:17:04;;;;;;;11.43;5.97;;;;;;;8.57;81.34;101342.72;12175828;19;20018;-78
2022/03/17 18:21:06;;;;;;;12.88;6.15;;;;;;;8.59;81.31;101345.25;12199183;19;19998;-81
2022/03/17 18:25:09;;;;;;;11.37;6.00;;;;;;;8.54;81.34;101353.25;12205919;19;20006;-79
2022/03/17 18:29:10;;;;;;;12.98;7.00;;;;;;;8.58;81.38;101355.38;12171473;19;20449;-77
2022/03/17 18:33:13;;;;;;;11.00;6.47;;;;;;;8.59;80.99;101354.34;12197976;19;20009;-80
2022/03/17 18:37:19;;;;;;;12.60;6.20;;;;;;;8.60;81.59;101360.69;12200252;19;20038;-78
2022/03/17 18:41:23;;;;;;;14.20;6.53;;;;;;;8.47;81.69;101366.06;12187373;19;20014;-79
2022/03/17 18:45:33;;;;;;;13.15;6.47;;;;;;;8.47;81.83;101374.31;12198235;19;20007;-80
2022/03/17 18:49:36;;;;;;;11.90;7.00;;;;;;;8.37;81.61;101380.13;12194292;19;20373;-79
2022/03/17 18:53:39;;;;;;;14.70;7.25;;;;;;;8.47;81.68;101386.16;12179306;19;20526;-77
2022/03/17 18:57:42;;;;;;;12.15;6.72;;;;;;;8.46;81.38;101392.69;12198928;19;20088;-79
2022/03/17 19:01:47;;;;;;;11.35;6.68;;;;;;;8.43;81.30;101399.44;12180962;19;20002;-80